sensor_id;sensor_type;location;lat;lon;timestamp;P1;durP1;ratioP1;P2;durP2;ratioP2
61356;SDS011;47227;46.752;23.576;2023-09-30T00:01:56;6.00;;;5.00;;
61356;SDS011;47227;46.752;23.576;2023-09-30T00:04:24;8.80;;;5.10;;
61356;SDS011;47227;46.752;23.576;2023-09-30T00:06:52;5.50;;;4.80;;
61356;SDS011;47227;46.752;23.576;2023-09-30T00:09:20;6.10;;;4.40;;
61356;SDS011;47227;46.752;23.576;2023-09-30T00:11:50;6.30;;;4.90;;
61356;SDS011;47227;46.752;23.576;2023-09-30T00:14:18;5.90;;;4.80;;
61356;SDS011;47227;46.752;23.576;2023-09-30T00:16:46;7.90;;;5.30;;
61356;SDS011;47227;46.752;23.576;2023-09-30T00:19:14;6.10;;;5.10;;
61356;SDS011;47227;46.752;23.576;2023-09-30T00:21:42;6.70;;;4.70;;
61356;SDS011;47227;46.752;23.576;2023-09-30T00:24:10;6.20;;;4.70;;
61356;SDS011;47227;46.752;23.576;2023-09-30T00:26:39;6.60;;;4.90;;
61356;SDS011;47227;46.752;23.576;2023-09-30T00:29:07;6.80;;;5.10;;
61356;SDS011;47227;46.752;23.576;2023-09-30T00:31:35;5.10;;;4.70;;
61356;SDS011;47227;46.752;23.576;2023-09-30T00:34:03;9.10;;;5.00;;
61356;SDS011;47227;46.752;23.576;2023-09-30T00:36:32;9.40;;;5.00;;
61356;SDS011;47227;46.752;23.576;2023-09-30T00:39:00;7.30;;;5.10;;
61356;SDS011;47227;46.752;23.576;2023-09-30T00:41:29;9.20;;;5.00;;
61356;SDS011;47227;46.752;23.576;2023-09-30T00:43:57;9.50;;;5.20;;
61356;SDS011;47227;46.752;23.576;2023-09-30T00:46:28;6.30;;;4.80;;
61356;SDS011;47227;46.752;23.576;2023-09-30T00:48:59;7.40;;;5.10;;
61356;SDS011;47227;46.752;23.576;2023-09-30T00:51:28;5.10;;;4.60;;
61356;SDS011;47227;46.752;23.576;2023-09-30T00:53:58;7.50;;;5.20;;
61356;SDS011;47227;46.752;23.576;2023-09-30T00:56:28;6.90;;;4.70;;
61356;SDS011;47227;46.752;23.576;2023-09-30T00:58:58;8.20;;;4.60;;
61356;SDS011;47227;46.752;23.576;2023-09-30T01:01:27;8.30;;;4.50;;
61356;SDS011;47227;46.752;23.576;2023-09-30T01:03:55;7.90;;;4.30;;
61356;SDS011;47227;46.752;23.576;2023-09-30T01:06:27;7.60;;;4.50;;
61356;SDS011;47227;46.752;23.576;2023-09-30T01:08:55;10.90;;;4.50;;
61356;SDS011;47227;46.752;23.576;2023-09-30T01:11:23;7.20;;;4.60;;
61356;SDS011;47227;46.752;23.576;2023-09-30T01:13:52;7.60;;;4.60;;
61356;SDS011;47227;46.752;23.576;2023-09-30T01:16:20;6.00;;;4.50;;
61356;SDS011;47227;46.752;23.576;2023-09-30T01:18:49;10.90;;;5.10;;
61356;SDS011;47227;46.752;23.576;2023-09-30T01:21:17;6.40;;;4.60;;
61356;SDS011;47227;46.752;23.576;2023-09-30T01:23:46;7.60;;;4.70;;
61356;SDS011;47227;46.752;23.576;2023-09-30T01:26:14;8.40;;;5.10;;
61356;SDS011;47227;46.752;23.576;2023-09-30T01:28:43;10.70;;;5.40;;
61356;SDS011;47227;46.752;23.576;2023-09-30T01:31:11;6.10;;;5.20;;
61356;SDS011;47227;46.752;23.576;2023-09-30T01:33:40;7.50;;;5.20;;
61356;SDS011;47227;46.752;23.576;2023-09-30T01:36:08;6.30;;;5.70;;
61356;SDS011;47227;46.752;23.576;2023-09-30T01:38:36;8.80;;;5.70;;
61356;SDS011;47227;46.752;23.576;2023-09-30T01:41:05;8.20;;;5.70;;
61356;SDS011;47227;46.752;23.576;2023-09-30T01:43:35;8.70;;;5.90;;
61356;SDS011;47227;46.752;23.576;2023-09-30T01:46:04;10.30;;;6.40;;
61356;SDS011;47227;46.752;23.576;2023-09-30T01:48:33;8.40;;;5.20;;
61356;SDS011;47227;46.752;23.576;2023-09-30T01:51:03;9.30;;;6.30;;
61356;SDS011;47227;46.752;23.576;2023-09-30T01:53:31;11.80;;;6.00;;
61356;SDS011;47227;46.752;23.576;2023-09-30T01:55:59;7.90;;;5.80;;
61356;SDS011;47227;46.752;23.576;2023-09-30T01:58:27;8.20;;;6.20;;
61356;SDS011;47227;46.752;23.576;2023-09-30T02:01:01;10.40;;;6.50;;
61356;SDS011;47227;46.752;23.576;2023-09-30T02:03:31;6.30;;;5.70;;
61356;SDS011;47227;46.752;23.576;2023-09-30T02:06:00;8.20;;;5.80;;
61356;SDS011;47227;46.752;23.576;2023-09-30T02:08:27;6.60;;;5.90;;
61356;SDS011;47227;46.752;23.576;2023-09-30T02:10:56;8.30;;;6.20;;
61356;SDS011;47227;46.752;23.576;2023-09-30T02:13:24;9.10;;;6.40;;
61356;SDS011;47227;46.752;23.576;2023-09-30T02:15:52;9.00;;;6.50;;
61356;SDS011;47227;46.752;23.576;2023-09-30T02:18:23;13.00;;;6.20;;
61356;SDS011;47227;46.752;23.576;2023-09-30T02:20:51;9.70;;;6.70;;
61356;SDS011;47227;46.752;23.576;2023-09-30T02:23:21;6.30;;;5.70;;
61356;SDS011;47227;46.752;23.576;2023-09-30T02:25:50;7.60;;;5.70;;
61356;SDS011;47227;46.752;23.576;2023-09-30T02:28:18;6.80;;;5.80;;
61356;SDS011;47227;46.752;23.576;2023-09-30T02:30:46;8.80;;;5.80;;
61356;SDS011;47227;46.752;23.576;2023-09-30T02:33:15;6.30;;;5.30;;
61356;SDS011;47227;46.752;23.576;2023-09-30T02:35:43;6.30;;;5.40;;
61356;SDS011;47227;46.752;23.576;2023-09-30T02:38:13;7.50;;;5.40;;
61356;SDS011;47227;46.752;23.576;2023-09-30T02:40:44;6.70;;;5.40;;
61356;SDS011;47227;46.752;23.576;2023-09-30T02:43:14;6.50;;;4.90;;
61356;SDS011;47227;46.752;23.576;2023-09-30T02:45:42;9.50;;;5.60;;
61356;SDS011;47227;46.752;23.576;2023-09-30T02:48:11;9.40;;;5.20;;
61356;SDS011;47227;46.752;23.576;2023-09-30T02:50:43;6.50;;;5.40;;
61356;SDS011;47227;46.752;23.576;2023-09-30T02:53:12;11.30;;;5.70;;
61356;SDS011;47227;46.752;23.576;2023-09-30T02:55:41;5.40;;;4.90;;
61356;SDS011;47227;46.752;23.576;2023-09-30T02:58:10;6.50;;;5.80;;
61356;SDS011;47227;46.752;23.576;2023-09-30T03:00:39;8.10;;;6.30;;
61356;SDS011;47227;46.752;23.576;2023-09-30T03:03:07;6.80;;;5.50;;
61356;SDS011;47227;46.752;23.576;2023-09-30T03:05:36;8.60;;;6.40;;
61356;SDS011;47227;46.752;23.576;2023-09-30T03:08:06;9.50;;;6.00;;
61356;SDS011;47227;46.752;23.576;2023-09-30T03:10:34;8.20;;;6.10;;
61356;SDS011;47227;46.752;23.576;2023-09-30T03:13:02;10.90;;;5.90;;
61356;SDS011;47227;46.752;23.576;2023-09-30T03:15:31;8.20;;;6.40;;
61356;SDS011;47227;46.752;23.576;2023-09-30T03:17:59;6.80;;;6.10;;
61356;SDS011;47227;46.752;23.576;2023-09-30T03:20:28;7.80;;;6.30;;
61356;SDS011;47227;46.752;23.576;2023-09-30T03:22:56;7.00;;;6.30;;
61356;SDS011;47227;46.752;23.576;2023-09-30T03:25:25;8.40;;;6.20;;
61356;SDS011;47227;46.752;23.576;2023-09-30T03:27:53;7.90;;;6.20;;
61356;SDS011;47227;46.752;23.576;2023-09-30T03:30:21;8.10;;;6.40;;
61356;SDS011;47227;46.752;23.576;2023-09-30T03:32:50;7.50;;;6.40;;
61356;SDS011;47227;46.752;23.576;2023-09-30T03:35:18;8.30;;;6.60;;
61356;SDS011;47227;46.752;23.576;2023-09-30T03:37:47;7.30;;;6.50;;
61356;SDS011;47227;46.752;23.576;2023-09-30T03:40:15;12.50;;;6.70;;
61356;SDS011;47227;46.752;23.576;2023-09-30T03:42:48;9.00;;;7.00;;
61356;SDS011;47227;46.752;23.576;2023-09-30T03:45:18;8.70;;;6.50;;
61356;SDS011;47227;46.752;23.576;2023-09-30T03:47:47;9.10;;;6.20;;
61356;SDS011;47227;46.752;23.576;2023-09-30T03:50:17;6.80;;;6.00;;
61356;SDS011;47227;46.752;23.576;2023-09-30T03:52:45;10.80;;;5.90;;
61356;SDS011;47227;46.752;23.576;2023-09-30T03:55:15;6.60;;;5.40;;
61356;SDS011;47227;46.752;23.576;2023-09-30T03:57:48;7.70;;;5.20;;
61356;SDS011;47227;46.752;23.576;2023-09-30T04:00:19;8.00;;;5.50;;
61356;SDS011;47227;46.752;23.576;2023-09-30T04:02:48;8.90;;;5.50;;
61356;SDS011;47227;46.752;23.576;2023-09-30T04:05:19;10.50;;;5.90;;
61356;SDS011;47227;46.752;23.576;2023-09-30T04:07:51;7.20;;;5.50;;
61356;SDS011;47227;46.752;23.576;2023-09-30T04:10:20;9.30;;;5.00;;
61356;SDS011;47227;46.752;23.576;2023-09-30T04:12:50;8.20;;;5.30;;
61356;SDS011;47227;46.752;23.576;2023-09-30T04:15:19;11.90;;;5.60;;
61356;SDS011;47227;46.752;23.576;2023-09-30T04:17:48;8.00;;;5.20;;
61356;SDS011;47227;46.752;23.576;2023-09-30T04:20:17;10.60;;;6.30;;
61356;SDS011;47227;46.752;23.576;2023-09-30T04:22:50;6.20;;;5.60;;
61356;SDS011;47227;46.752;23.576;2023-09-30T04:25:19;9.10;;;6.10;;
61356;SDS011;47227;46.752;23.576;2023-09-30T04:27:48;7.00;;;5.70;;
61356;SDS011;47227;46.752;23.576;2023-09-30T04:30:17;8.30;;;6.50;;
61356;SDS011;47227;46.752;23.576;2023-09-30T04:32:46;9.40;;;6.40;;
61356;SDS011;47227;46.752;23.576;2023-09-30T04:35:14;6.80;;;6.10;;
61356;SDS011;47227;46.752;23.576;2023-09-30T04:37:42;8.90;;;7.20;;
61356;SDS011;47227;46.752;23.576;2023-09-30T04:40:11;10.10;;;5.90;;
61356;SDS011;47227;46.752;23.576;2023-09-30T04:42:54;9.10;;;6.40;;
61356;SDS011;47227;46.752;23.576;2023-09-30T04:45:26;8.80;;;6.60;;
61356;SDS011;47227;46.752;23.576;2023-09-30T04:47:54;8.00;;;6.40;;
61356;SDS011;47227;46.752;23.576;2023-09-30T04:50:24;7.10;;;6.40;;
61356;SDS011;47227;46.752;23.576;2023-09-30T04:52:53;8.60;;;6.50;;
61356;SDS011;47227;46.752;23.576;2023-09-30T04:55:21;7.00;;;5.90;;
61356;SDS011;47227;46.752;23.576;2023-09-30T04:57:49;8.50;;;6.90;;
61356;SDS011;47227;46.752;23.576;2023-09-30T05:00:19;9.00;;;5.90;;
61356;SDS011;47227;46.752;23.576;2023-09-30T05:02:55;8.10;;;6.20;;
61356;SDS011;47227;46.752;23.576;2023-09-30T05:05:24;6.60;;;5.40;;
61356;SDS011;47227;46.752;23.576;2023-09-30T05:07:52;7.10;;;5.60;;
61356;SDS011;47227;46.752;23.576;2023-09-30T05:10:20;11.10;;;5.50;;
61356;SDS011;47227;46.752;23.576;2023-09-30T05:12:48;7.00;;;5.20;;
61356;SDS011;47227;46.752;23.576;2023-09-30T05:15:16;10.20;;;5.50;;
61356;SDS011;47227;46.752;23.576;2023-09-30T05:17:47;9.60;;;5.70;;
61356;SDS011;47227;46.752;23.576;2023-09-30T05:20:16;5.80;;;5.20;;
61356;SDS011;47227;46.752;23.576;2023-09-30T05:22:46;10.20;;;6.00;;
61356;SDS011;47227;46.752;23.576;2023-09-30T05:25:15;9.40;;;6.00;;
61356;SDS011;47227;46.752;23.576;2023-09-30T05:27:45;7.30;;;6.30;;
61356;SDS011;47227;46.752;23.576;2023-09-30T05:30:16;7.50;;;5.80;;
61356;SDS011;47227;46.752;23.576;2023-09-30T05:32:47;10.00;;;6.20;;
61356;SDS011;47227;46.752;23.576;2023-09-30T05:35:15;7.40;;;6.30;;
61356;SDS011;47227;46.752;23.576;2023-09-30T05:37:45;10.30;;;6.40;;
61356;SDS011;47227;46.752;23.576;2023-09-30T05:40:13;12.90;;;6.20;;
61356;SDS011;47227;46.752;23.576;2023-09-30T05:42:51;11.20;;;6.00;;
61356;SDS011;47227;46.752;23.576;2023-09-30T05:45:22;9.30;;;6.20;;
61356;SDS011;47227;46.752;23.576;2023-09-30T05:47:52;9.20;;;6.20;;
61356;SDS011;47227;46.752;23.576;2023-09-30T05:50:22;9.10;;;6.30;;
61356;SDS011;47227;46.752;23.576;2023-09-30T05:52:54;8.60;;;6.60;;
61356;SDS011;47227;46.752;23.576;2023-09-30T05:55:23;7.60;;;6.70;;
61356;SDS011;47227;46.752;23.576;2023-09-30T05:57:54;7.40;;;6.50;;
61356;SDS011;47227;46.752;23.576;2023-09-30T06:00:23;7.40;;;6.70;;
61356;SDS011;47227;46.752;23.576;2023-09-30T06:03:01;10.20;;;6.70;;
61356;SDS011;47227;46.752;23.576;2023-09-30T06:05:33;9.10;;;6.60;;
61356;SDS011;47227;46.752;23.576;2023-09-30T06:08:03;10.70;;;7.10;;
61356;SDS011;47227;46.752;23.576;2023-09-30T06:10:32;8.90;;;6.80;;
61356;SDS011;47227;46.752;23.576;2023-09-30T06:13:00;8.00;;;7.20;;
61356;SDS011;47227;46.752;23.576;2023-09-30T06:15:30;13.40;;;7.20;;
61356;SDS011;47227;46.752;23.576;2023-09-30T06:17:59;9.20;;;7.50;;
61356;SDS011;47227;46.752;23.576;2023-09-30T06:20:28;10.90;;;6.90;;
61356;SDS011;47227;46.752;23.576;2023-09-30T06:22:58;9.90;;;6.90;;
61356;SDS011;47227;46.752;23.576;2023-09-30T06:25:28;10.00;;;7.00;;
61356;SDS011;47227;46.752;23.576;2023-09-30T06:27:58;11.50;;;7.70;;
61356;SDS011;47227;46.752;23.576;2023-09-30T06:30:26;9.80;;;7.40;;
61356;SDS011;47227;46.752;23.576;2023-09-30T06:32:59;8.10;;;7.20;;
61356;SDS011;47227;46.752;23.576;2023-09-30T06:35:29;7.20;;;6.50;;
61356;SDS011;47227;46.752;23.576;2023-09-30T06:38:00;8.90;;;7.10;;
61356;SDS011;47227;46.752;23.576;2023-09-30T06:40:29;14.00;;;7.10;;
61356;SDS011;47227;46.752;23.576;2023-09-30T06:42:57;9.90;;;7.50;;
61356;SDS011;47227;46.752;23.576;2023-09-30T06:45:26;10.50;;;6.90;;
61356;SDS011;47227;46.752;23.576;2023-09-30T06:47:54;10.20;;;6.90;;
61356;SDS011;47227;46.752;23.576;2023-09-30T06:50:22;8.10;;;6.60;;
61356;SDS011;47227;46.752;23.576;2023-09-30T06:52:51;8.80;;;6.50;;
61356;SDS011;47227;46.752;23.576;2023-09-30T06:55:19;8.60;;;7.10;;
61356;SDS011;47227;46.752;23.576;2023-09-30T06:57:47;8.90;;;7.10;;
61356;SDS011;47227;46.752;23.576;2023-09-30T07:00:15;11.20;;;7.30;;
61356;SDS011;47227;46.752;23.576;2023-09-30T07:02:44;10.80;;;7.10;;
61356;SDS011;47227;46.752;23.576;2023-09-30T07:05:13;8.20;;;6.80;;
61356;SDS011;47227;46.752;23.576;2023-09-30T07:07:42;10.50;;;7.30;;
61356;SDS011;47227;46.752;23.576;2023-09-30T07:10:12;10.00;;;7.20;;
61356;SDS011;47227;46.752;23.576;2023-09-30T07:12:40;20.20;;;7.20;;
61356;SDS011;47227;46.752;23.576;2023-09-30T07:15:09;9.10;;;7.20;;
61356;SDS011;47227;46.752;23.576;2023-09-30T07:17:37;11.80;;;7.10;;
61356;SDS011;47227;46.752;23.576;2023-09-30T07:20:07;11.00;;;7.00;;
61356;SDS011;47227;46.752;23.576;2023-09-30T07:22:37;11.30;;;6.70;;
61356;SDS011;47227;46.752;23.576;2023-09-30T07:25:22;17.60;;;7.30;;
61356;SDS011;47227;46.752;23.576;2023-09-30T07:27:50;9.10;;;7.20;;
61356;SDS011;47227;46.752;23.576;2023-09-30T07:30:18;8.50;;;6.80;;
61356;SDS011;47227;46.752;23.576;2023-09-30T07:32:46;9.50;;;6.20;;
61356;SDS011;47227;46.752;23.576;2023-09-30T07:35:15;7.80;;;6.50;;
61356;SDS011;47227;46.752;23.576;2023-09-30T07:37:43;11.00;;;6.60;;
61356;SDS011;47227;46.752;23.576;2023-09-30T07:40:12;14.40;;;7.30;;
61356;SDS011;47227;46.752;23.576;2023-09-30T07:42:40;8.80;;;6.60;;
61356;SDS011;47227;46.752;23.576;2023-09-30T07:45:09;8.00;;;7.00;;
61356;SDS011;47227;46.752;23.576;2023-09-30T07:47:39;12.70;;;7.00;;
61356;SDS011;47227;46.752;23.576;2023-09-30T07:50:07;15.20;;;7.20;;
61356;SDS011;47227;46.752;23.576;2023-09-30T07:52:38;8.80;;;7.10;;
61356;SDS011;47227;46.752;23.576;2023-09-30T07:55:08;11.60;;;7.60;;
61356;SDS011;47227;46.752;23.576;2023-09-30T07:57:38;7.60;;;6.80;;
61356;SDS011;47227;46.752;23.576;2023-09-30T08:00:09;10.20;;;7.50;;
61356;SDS011;47227;46.752;23.576;2023-09-30T08:02:43;11.30;;;7.10;;
61356;SDS011;47227;46.752;23.576;2023-09-30T08:05:12;8.00;;;7.10;;
61356;SDS011;47227;46.752;23.576;2023-09-30T08:07:40;8.10;;;7.10;;
61356;SDS011;47227;46.752;23.576;2023-09-30T08:10:09;9.80;;;7.60;;
61356;SDS011;47227;46.752;23.576;2023-09-30T08:12:41;8.90;;;7.50;;
61356;SDS011;47227;46.752;23.576;2023-09-30T08:15:10;12.00;;;7.70;;
61356;SDS011;47227;46.752;23.576;2023-09-30T08:17:40;17.40;;;7.90;;
61356;SDS011;47227;46.752;23.576;2023-09-30T08:20:09;15.10;;;8.40;;
61356;SDS011;47227;46.752;23.576;2023-09-30T08:22:37;12.60;;;8.60;;
61356;SDS011;47227;46.752;23.576;2023-09-30T08:25:05;11.50;;;8.20;;
61356;SDS011;47227;46.752;23.576;2023-09-30T08:27:34;13.50;;;8.60;;
61356;SDS011;47227;46.752;23.576;2023-09-30T08:30:03;8.90;;;7.70;;
61356;SDS011;47227;46.752;23.576;2023-09-30T08:32:34;11.20;;;8.20;;
61356;SDS011;47227;46.752;23.576;2023-09-30T08:35:03;10.00;;;8.50;;
61356;SDS011;47227;46.752;23.576;2023-09-30T08:37:31;16.20;;;7.80;;
61356;SDS011;47227;46.752;23.576;2023-09-30T08:39:59;13.00;;;8.20;;
61356;SDS011;47227;46.752;23.576;2023-09-30T08:42:27;9.90;;;7.20;;
61356;SDS011;47227;46.752;23.576;2023-09-30T08:45:00;11.70;;;7.10;;
61356;SDS011;47227;46.752;23.576;2023-09-30T08:47:29;14.70;;;7.50;;
61356;SDS011;47227;46.752;23.576;2023-09-30T08:49:59;9.60;;;7.80;;
61356;SDS011;47227;46.752;23.576;2023-09-30T08:52:35;10.70;;;7.70;;
61356;SDS011;47227;46.752;23.576;2023-09-30T08:55:08;8.50;;;7.30;;
61356;SDS011;47227;46.752;23.576;2023-09-30T08:57:37;11.60;;;6.90;;
61356;SDS011;47227;46.752;23.576;2023-09-30T09:00:08;15.50;;;7.80;;
61356;SDS011;47227;46.752;23.576;2023-09-30T09:02:40;15.60;;;7.20;;
61356;SDS011;47227;46.752;23.576;2023-09-30T09:05:09;12.20;;;7.10;;
61356;SDS011;47227;46.752;23.576;2023-09-30T09:07:39;14.70;;;7.40;;
61356;SDS011;47227;46.752;23.576;2023-09-30T09:10:09;13.40;;;7.20;;
61356;SDS011;47227;46.752;23.576;2023-09-30T09:12:40;12.40;;;7.30;;
61356;SDS011;47227;46.752;23.576;2023-09-30T09:17:54;10.70;;;6.40;;
61356;SDS011;47227;46.752;23.576;2023-09-30T09:20:22;6.60;;;5.90;;
61356;SDS011;47227;46.752;23.576;2023-09-30T09:22:53;11.50;;;7.00;;
61356;SDS011;47227;46.752;23.576;2023-09-30T09:25:23;11.90;;;7.10;;
61356;SDS011;47227;46.752;23.576;2023-09-30T09:27:51;12.50;;;7.40;;
61356;SDS011;47227;46.752;23.576;2023-09-30T09:30:23;9.50;;;7.00;;
61356;SDS011;47227;46.752;23.576;2023-09-30T09:32:58;9.50;;;7.00;;
61356;SDS011;47227;46.752;23.576;2023-09-30T09:35:32;9.40;;;6.40;;
61356;SDS011;47227;46.752;23.576;2023-09-30T09:38:04;8.40;;;6.80;;
61356;SDS011;47227;46.752;23.576;2023-09-30T09:40:33;11.80;;;6.40;;
61356;SDS011;47227;46.752;23.576;2023-09-30T09:43:03;7.10;;;6.40;;
61356;SDS011;47227;46.752;23.576;2023-09-30T09:45:34;10.90;;;6.60;;
61356;SDS011;47227;46.752;23.576;2023-09-30T09:48:05;8.40;;;6.40;;
61356;SDS011;47227;46.752;23.576;2023-09-30T09:50:35;6.90;;;5.50;;
61356;SDS011;47227;46.752;23.576;2023-09-30T09:53:03;7.10;;;5.10;;
61356;SDS011;47227;46.752;23.576;2023-09-30T09:55:32;11.50;;;5.50;;
61356;SDS011;47227;46.752;23.576;2023-09-30T09:58:03;9.90;;;5.80;;
61356;SDS011;47227;46.752;23.576;2023-09-30T10:00:32;12.60;;;6.40;;
61356;SDS011;47227;46.752;23.576;2023-09-30T10:03:01;7.30;;;6.50;;
61356;SDS011;47227;46.752;23.576;2023-09-30T10:05:30;9.80;;;5.80;;
61356;SDS011;47227;46.752;23.576;2023-09-30T10:08:00;7.00;;;5.10;;
61356;SDS011;47227;46.752;23.576;2023-09-30T10:10:36;7.70;;;5.40;;
61356;SDS011;47227;46.752;23.576;2023-09-30T10:13:05;23.00;;;6.00;;
61356;SDS011;47227;46.752;23.576;2023-09-30T10:15:34;8.10;;;5.60;;
61356;SDS011;47227;46.752;23.576;2023-09-30T10:18:06;10.00;;;5.10;;
61356;SDS011;47227;46.752;23.576;2023-09-30T10:20:42;7.40;;;5.60;;
61356;SDS011;47227;46.752;23.576;2023-09-30T10:23:19;9.60;;;4.60;;
61356;SDS011;47227;46.752;23.576;2023-09-30T10:25:48;5.80;;;5.00;;
61356;SDS011;47227;46.752;23.576;2023-09-30T10:28:34;8.60;;;4.90;;
61356;SDS011;47227;46.752;23.576;2023-09-30T10:31:08;5.90;;;5.00;;
61356;SDS011;47227;46.752;23.576;2023-09-30T10:36:45;9.20;;;5.60;;
61356;SDS011;47227;46.752;23.576;2023-09-30T10:39:14;8.40;;;5.00;;
61356;SDS011;47227;46.752;23.576;2023-09-30T10:44:32;6.10;;;4.40;;
61356;SDS011;47227;46.752;23.576;2023-09-30T10:53:18;7.70;;;4.40;;
61356;SDS011;47227;46.752;23.576;2023-09-30T10:55:47;6.70;;;4.10;;
61356;SDS011;47227;46.752;23.576;2023-09-30T10:58:22;6.20;;;4.40;;
61356;SDS011;47227;46.752;23.576;2023-09-30T11:01:15;6.00;;;3.90;;
61356;SDS011;47227;46.752;23.576;2023-09-30T11:03:47;8.90;;;4.30;;
61356;SDS011;47227;46.752;23.576;2023-09-30T11:06:20;7.20;;;4.00;;
61356;SDS011;47227;46.752;23.576;2023-09-30T11:08:51;6.80;;;4.00;;
61356;SDS011;47227;46.752;23.576;2023-09-30T11:14:19;4.50;;;3.80;;
61356;SDS011;47227;46.752;23.576;2023-09-30T11:16:49;7.90;;;3.80;;
61356;SDS011;47227;46.752;23.576;2023-09-30T11:19:18;7.60;;;4.30;;
61356;SDS011;47227;46.752;23.576;2023-09-30T11:21:52;6.30;;;3.90;;
61356;SDS011;47227;46.752;23.576;2023-09-30T11:24:23;5.20;;;4.10;;
61356;SDS011;47227;46.752;23.576;2023-09-30T11:26:54;3.60;;;3.20;;
61356;SDS011;47227;46.752;23.576;2023-09-30T11:29:23;6.50;;;3.00;;
61356;SDS011;47227;46.752;23.576;2023-09-30T11:31:52;4.70;;;3.30;;
61356;SDS011;47227;46.752;23.576;2023-09-30T11:34:30;5.20;;;3.10;;
61356;SDS011;47227;46.752;23.576;2023-09-30T11:37:01;4.10;;;2.70;;
61356;SDS011;47227;46.752;23.576;2023-09-30T11:39:30;4.70;;;2.20;;
61356;SDS011;47227;46.752;23.576;2023-09-30T11:41:59;5.00;;;2.80;;
61356;SDS011;47227;46.752;23.576;2023-09-30T11:44:29;4.50;;;3.00;;
61356;SDS011;47227;46.752;23.576;2023-09-30T11:46:59;6.40;;;2.90;;
61356;SDS011;47227;46.752;23.576;2023-09-30T11:49:33;5.50;;;2.90;;
61356;SDS011;47227;46.752;23.576;2023-09-30T11:52:07;3.90;;;3.00;;
61356;SDS011;47227;46.752;23.576;2023-09-30T11:54:39;2.80;;;2.50;;
61356;SDS011;47227;46.752;23.576;2023-09-30T11:57:12;6.80;;;2.60;;
61356;SDS011;47227;46.752;23.576;2023-09-30T11:59:44;7.80;;;3.10;;
61356;SDS011;47227;46.752;23.576;2023-09-30T12:02:13;6.60;;;2.90;;
61356;SDS011;47227;46.752;23.576;2023-09-30T12:04:43;8.30;;;2.90;;
61356;SDS011;47227;46.752;23.576;2023-09-30T12:07:13;3.60;;;2.60;;
61356;SDS011;47227;46.752;23.576;2023-09-30T12:09:41;10.70;;;2.40;;
61356;SDS011;47227;46.752;23.576;2023-09-30T12:12:10;5.50;;;2.60;;
61356;SDS011;47227;46.752;23.576;2023-09-30T12:14:39;4.90;;;2.80;;
61356;SDS011;47227;46.752;23.576;2023-09-30T12:17:08;6.20;;;2.60;;
61356;SDS011;47227;46.752;23.576;2023-09-30T12:19:40;4.20;;;2.40;;
61356;SDS011;47227;46.752;23.576;2023-09-30T12:22:10;4.60;;;3.00;;
61356;SDS011;47227;46.752;23.576;2023-09-30T12:24:39;6.50;;;3.00;;
61356;SDS011;47227;46.752;23.576;2023-09-30T12:27:08;5.30;;;2.60;;
61356;SDS011;47227;46.752;23.576;2023-09-30T12:29:36;4.70;;;3.00;;
61356;SDS011;47227;46.752;23.576;2023-09-30T12:32:06;6.10;;;2.80;;
61356;SDS011;47227;46.752;23.576;2023-09-30T12:34:35;4.60;;;2.80;;
61356;SDS011;47227;46.752;23.576;2023-09-30T12:37:03;6.30;;;2.50;;
61356;SDS011;47227;46.752;23.576;2023-09-30T12:39:32;5.60;;;2.80;;
61356;SDS011;47227;46.752;23.576;2023-09-30T12:42:01;6.30;;;2.70;;
61356;SDS011;47227;46.752;23.576;2023-09-30T12:44:36;6.50;;;2.90;;
61356;SDS011;47227;46.752;23.576;2023-09-30T12:47:05;3.90;;;2.90;;
61356;SDS011;47227;46.752;23.576;2023-09-30T12:49:34;4.30;;;2.50;;
61356;SDS011;47227;46.752;23.576;2023-09-30T12:52:02;5.20;;;2.80;;
61356;SDS011;47227;46.752;23.576;2023-09-30T12:54:30;17.90;;;4.00;;
61356;SDS011;47227;46.752;23.576;2023-09-30T12:56:58;3.90;;;3.50;;
61356;SDS011;47227;46.752;23.576;2023-09-30T12:59:26;5.30;;;3.00;;
61356;SDS011;47227;46.752;23.576;2023-09-30T13:01:54;5.20;;;3.20;;
61356;SDS011;47227;46.752;23.576;2023-09-30T13:04:24;3.90;;;2.60;;
61356;SDS011;47227;46.752;23.576;2023-09-30T13:06:52;4.60;;;2.90;;
61356;SDS011;47227;46.752;23.576;2023-09-30T13:09:21;4.80;;;2.60;;
61356;SDS011;47227;46.752;23.576;2023-09-30T13:11:49;4.50;;;2.90;;
61356;SDS011;47227;46.752;23.576;2023-09-30T13:14:17;5.40;;;2.60;;
61356;SDS011;47227;46.752;23.576;2023-09-30T13:16:45;6.40;;;2.90;;
61356;SDS011;47227;46.752;23.576;2023-09-30T13:19:13;4.40;;;2.70;;
61356;SDS011;47227;46.752;23.576;2023-09-30T13:21:43;5.70;;;2.70;;
61356;SDS011;47227;46.752;23.576;2023-09-30T13:24:12;5.40;;;2.30;;
61356;SDS011;47227;46.752;23.576;2023-09-30T13:26:39;3.80;;;2.50;;
61356;SDS011;47227;46.752;23.576;2023-09-30T13:29:07;3.50;;;2.50;;
61356;SDS011;47227;46.752;23.576;2023-09-30T13:31:37;3.40;;;2.30;;
61356;SDS011;47227;46.752;23.576;2023-09-30T13:34:06;4.70;;;2.40;;
61356;SDS011;47227;46.752;23.576;2023-09-30T13:36:34;5.30;;;2.50;;
61356;SDS011;47227;46.752;23.576;2023-09-30T13:39:02;2.90;;;2.60;;
61356;SDS011;47227;46.752;23.576;2023-09-30T13:41:33;4.20;;;2.70;;
61356;SDS011;47227;46.752;23.576;2023-09-30T13:44:03;5.70;;;2.60;;
61356;SDS011;47227;46.752;23.576;2023-09-30T13:46:31;3.20;;;2.70;;
61356;SDS011;47227;46.752;23.576;2023-09-30T13:49:00;4.50;;;2.70;;
61356;SDS011;47227;46.752;23.576;2023-09-30T13:51:28;3.20;;;2.90;;
61356;SDS011;47227;46.752;23.576;2023-09-30T13:53:56;3.90;;;2.70;;
61356;SDS011;47227;46.752;23.576;2023-09-30T13:56:24;5.10;;;2.80;;
61356;SDS011;47227;46.752;23.576;2023-09-30T13:58:52;5.60;;;3.10;;
61356;SDS011;47227;46.752;23.576;2023-09-30T14:01:20;3.50;;;2.50;;
61356;SDS011;47227;46.752;23.576;2023-09-30T14:03:49;3.50;;;3.00;;
61356;SDS011;47227;46.752;23.576;2023-09-30T14:06:17;5.00;;;3.50;;
61356;SDS011;47227;46.752;23.576;2023-09-30T14:08:45;5.10;;;2.70;;
61356;SDS011;47227;46.752;23.576;2023-09-30T14:11:13;3.60;;;2.90;;
61356;SDS011;47227;46.752;23.576;2023-09-30T14:13:41;4.60;;;3.20;;
61356;SDS011;47227;46.752;23.576;2023-09-30T14:16:10;5.20;;;2.90;;
61356;SDS011;47227;46.752;23.576;2023-09-30T14:18:39;5.00;;;3.00;;
61356;SDS011;47227;46.752;23.576;2023-09-30T14:21:07;6.30;;;3.30;;
61356;SDS011;47227;46.752;23.576;2023-09-30T14:23:35;4.20;;;2.70;;
61356;SDS011;47227;46.752;23.576;2023-09-30T14:26:06;4.40;;;3.00;;
61356;SDS011;47227;46.752;23.576;2023-09-30T14:28:39;5.10;;;3.10;;
61356;SDS011;47227;46.752;23.576;2023-09-30T14:31:06;5.20;;;2.90;;
61356;SDS011;47227;46.752;23.576;2023-09-30T14:33:35;4.10;;;3.00;;
61356;SDS011;47227;46.752;23.576;2023-09-30T14:36:03;5.00;;;3.00;;
61356;SDS011;47227;46.752;23.576;2023-09-30T14:38:33;4.30;;;3.30;;
61356;SDS011;47227;46.752;23.576;2023-09-30T14:41:01;6.70;;;3.30;;
61356;SDS011;47227;46.752;23.576;2023-09-30T14:43:29;4.40;;;3.30;;
61356;SDS011;47227;46.752;23.576;2023-09-30T14:46:00;3.60;;;2.60;;
61356;SDS011;47227;46.752;23.576;2023-09-30T14:48:30;4.60;;;3.20;;
61356;SDS011;47227;46.752;23.576;2023-09-30T14:50:58;5.00;;;2.90;;
61356;SDS011;47227;46.752;23.576;2023-09-30T14:53:26;3.70;;;3.00;;
61356;SDS011;47227;46.752;23.576;2023-09-30T14:55:54;4.10;;;2.40;;
61356;SDS011;47227;46.752;23.576;2023-09-30T14:58:22;4.90;;;2.90;;
61356;SDS011;47227;46.752;23.576;2023-09-30T15:00:50;4.50;;;3.00;;
61356;SDS011;47227;46.752;23.576;2023-09-30T15:03:19;6.30;;;3.40;;